sensor_id;sensor_type;location;lat;lon;timestamp;pressure;altitude;pressure_sealevel;temperature;humidity
71642;BME280;60657;50.122;14.468;2022-07-23T00:01:54;98237.88502891583;;;25.050736247806512;52.29709315632868
71642;BME280;60657;50.122;14.468;2022-07-23T00:04:57;98230.64859000934;;;24.903868162050813;52.80827038986801
71642;BME280;60657;50.122;14.468;2022-07-23T00:08:00;98231.85572875274;;;24.714274814984364;53.71236743724727
71642;BME280;60657;50.122;14.468;2022-07-23T00:11:04;98222.74788207047;;;24.911879148546575;52.770122835126266
71642;BME280;60657;50.122;14.468;2022-07-23T00:14:10;98230.38759496063;;;24.927901121538113;52.34668497749294
71642;BME280;60657;50.122;14.468;2022-07-23T00:17:13;98227.4915172159;;;24.935912108033875;52.266575112535286
71642;BME280;60657;50.122;14.468;2022-07-23T00:20:16;98229.82874627155;;;24.858472571908138;52.125429159990844
71642;BME280;60657;50.122;14.468;2022-07-23T00:23:19;98222.57915546205;;;24.6955825131609;52.69764248111696
71642;BME280;60657;50.122;14.468;2022-07-23T00:26:22;98216.7021735416;;;24.554055085069052;53.451056687266345
71642;BME280;60657;50.122;14.468;2022-07-23T00:29:25;98224.04730896105;;;24.716945143816275;53.1191729610132
71642;BME280;60657;50.122;14.468;2022-07-23T00:32:28;98229.39575651711;;;24.679560540169376;52.81208514534218
71642;BME280;60657;50.122;14.468;2022-07-23T00:35:32;98232.504348656;;;24.66887922484169;52.69764248111696
71642;BME280;60657;50.122;14.468;2022-07-23T00:38:37;98221.3947998868;;;24.444571602960252;53.59792477302205
71642;BME280;60657;50.122;14.468;2022-07-23T00:41:40;98210.6680956514;;;24.271000228885327;53.83062485694667
71642;BME280;60657;50.122;14.468;2022-07-23T00:44:43;98213.4464795319;;;24.36446173800259;53.51209277485313
71642;BME280;60657;50.122;14.468;2022-07-23T00:47:46;98206.96978905199;;;24.348439765011065;54.16441596093691
71642;BME280;60657;50.122;14.468;2022-07-23T00:50:50;98201.89623918984;;;24.19356069275959;54.48485542076753
71642;BME280;60657;50.122;14.468;2022-07-23T00:53:53;98202.44969390224;;;24.375143053330277;53.63225757228962
71642;BME280;60657;50.122;14.468;2022-07-23T00:56:56;98192.1885493337;;;24.391165026321815;53.9145494773785
71642;BME280;60657;50.122;14.468;2022-07-23T00:59:59;98188.0596790068;;;24.452582589456014;53.86114290074006
71642;BME280;60657;50.122;14.468;2022-07-23T01:03:03;98192.11940507327;;;24.618142977035177;53.487296864271
71642;BME280;60657;50.122;14.468;2022-07-23T01:06:06;98196.8646037798;;;24.647516594186314;53.21072709239338
71642;BME280;60657;50.122;14.468;2022-07-23T01:09:09;98192.33229425947;;;24.730296787975888;52.99137865262836
71642;BME280;60657;50.122;14.468;2022-07-23T01:12:12;98191.679810599;;;24.50598916609445;53.918364232852674
71642;BME280;60657;50.122;14.468;2022-07-23T01:15:16;98198.43385650193;;;24.409857328145264;54.246433203631646
71642;BME280;60657;50.122;14.468;2022-07-23T01:18:19;98197.71818851297;;;24.060044251163504;55.64263370717937
71642;BME280;60657;50.122;14.468;2022-07-23T01:21:22;98183.69324496239;;;23.939879453727016;56.58297093156329
71642;BME280;60657;50.122;14.468;2022-07-23T01:24:25;98184.59536658449;;;23.85175860227359;56.8747997253376
71642;BME280;60657;50.122;14.468;2022-07-23T01:27:28;98185.57209588875;;;23.790341039139392;57.3478294041352
71642;BME280;60657;50.122;14.468;2022-07-23T01:30:32;98187.77653777257;;;23.760967421988255;57.33829251544976
71642;BME280;60657;50.122;14.468;2022-07-23T01:33:35;98185.13379227581;;;23.638132295719842;57.55191882200351
71642;BME280;60657;50.122;14.468;2022-07-23T01:36:38;98177.08820672173;;;23.49393453879607;57.94483863584344
71642;BME280;60657;50.122;14.468;2022-07-23T01:39:45;98172.82771311556;;;23.499275196459905;57.651102464332034
71642;BME280;60657;50.122;14.468;2022-07-23T01:42:48;98169.6254408597;;;23.448538948653393;57.820859082932785
71642;BME280;60657;50.122;14.468;2022-07-23T01:45:52;98162.08381886777;;;23.472571908140694;57.98298619058518
71642;BME280;60657;50.122;14.468;2022-07-23T01:48:55;98165.33326529703;;;23.31235217822538;58.14702067597467
71642;BME280;60657;50.122;14.468;2022-07-23T01:51:58;98160.68049608597;;;23.424505989166093;57.504234378576335
71642;BME280;60657;50.122;14.468;2022-07-23T01:55:01;98162.08381886777;;;23.461890592813006;57.355458915083545
71642;BME280;60657;50.122;14.468;2022-07-23T01:58:05;98168.48766461537;;;23.547341115434506;57.317311360341805
71642;BME280;60657;50.122;14.468;2022-07-23T02:01:08;98152.58388589746;;;23.523308155947205;57.41458762493324
71642;BME280;60657;50.122;14.468;2022-07-23T02:04:12;98159.22554997988;;;23.54467078660258;57.02166781109331
71642;BME280;60657;50.122;14.468;2022-07-23T02:07:15;98152.58388589746;;;23.48325322346838;57.00640878919661
71642;BME280;60657;50.122;14.468;2022-07-23T02:10:18;98152.58388589746;;;23.491264209964143;56.98542763408865
71642;BME280;60657;50.122;14.468;2022-07-23T02:13:21;98158.0057763476;;;23.62478065156023;56.523842221713586
71642;BME280;60657;50.122;14.468;2022-07-23T02:16:25;98158.16585192183;;;23.576714732585643;56.73556115053025
71642;BME280;60657;50.122;14.468;2022-07-23T02:19:28;98163.16725756584;;;23.488593881132218;56.785152971694515
71642;BME280;60657;50.122;14.468;2022-07-23T02:22:31;98158.92118886572;;;23.635461966887917;56.319752803845276
71642;BME280;60657;50.122;14.468;2022-07-23T02:25:34;98160.39928389127;;;23.632791638056005;56.39604791332876
71642;BME280;60657;50.122;14.468;2022-07-23T02:28:38;98154.99045662399;;;23.662165255207142;56.50858319981689
71642;BME280;60657;50.122;14.468;2022-07-23T02:31:41;98143.26555302368;;;23.664835584039068;56.737468528267335
71642;BME280;60657;50.122;14.468;2022-07-23T02:34:44;98152.60256115059;;;23.664835584039068;57.06172274357214
71642;BME280;60657;50.122;14.468;2022-07-23T02:37:47;98158.4849169222;;;23.52063782711528;57.439383535515375
71642;BME280;60657;50.122;14.468;2022-07-23T02:40:50;98154.51109148744;;;23.296330205233843;58.3053330281529
71642;BME280;60657;50.122;14.468;2022-07-23T02:43:53;98158.53449447437;;;23.363088426031894;57.85328450446326
71642;BME280;60657;50.122;14.468;2022-07-23T02:46:56;98146.8137195631;;;23.32303349355307;58.22903791866942
71642;BME280;60657;50.122;14.468;2022-07-23T02:49:59;98152.04996832335;;;23.296330205233843;58.21377889677272
71642;BME280;60657;50.122;14.468;2022-07-23T02:53:03;98162.51999578353;;;23.248264286259257;58.72877088578622
71642;BME280;60657;50.122;14.468;2022-07-23T02:56:06;98166.70031710954;;;23.290989547570007;58.98435950255589
71642;BME280;60657;50.122;14.468;2022-07-23T02:59:09;98160.87901642996;;;23.200198367284656;58.81841763942931
71642;BME280;60657;50.122;14.468;2022-07-23T03:02:12;98172.08886935502;;;23.176165407797356;59.19989318684672
71642;BME280;60657;50.122;14.468;2022-07-23T03:05:15;98159.23805019399;;;23.181506065461207;59.0129701686122
71642;BME280;60657;50.122;14.468;2022-07-23T03:08:18;98160.9567583907;;;23.200198367284656;59.035858701457244
71642;BME280;60657;50.122;14.468;2022-07-23T03:11:22;98158.4952824219;;;23.176165407797356;58.83367666132601
71642;BME280;60657;50.122;14.468;2022-07-23T03:14:25;98152.6743164558;;;23.133440146486606;58.80315861753262
71642;BME280;60657;50.122;14.468;2022-07-23T03:17:28;98145.79967794474;;;23.15480277714198;58.88517586022736
71642;BME280;60657;50.122;14.468;2022-07-23T03:20:32;98146.65613165432;;;23.258945601586944;58.72114137483787
71642;BME280;60657;50.122;14.468;2022-07-23T03:23:35;98143.4819485606;;;23.352407110704206;58.845120927748525
71642;BME280;60657;50.122;14.468;2022-07-23T03:26:38;98131.17958643673;;;23.328374151216906;58.3339436942092
71642;BME280;60657;50.122;14.468;2022-07-23T03:29:41;98141.10100722048;;;23.42717631799802;57.76554512855726
71642;BME280;60657;50.122;14.468;2022-07-23T03:32:45;98132.23787169921;;;23.301670862897694;58.07454032196536
71642;BME280;60657;50.122;14.468;2022-07-23T03:35:48;98122.15832203306;;;23.32303349355307;58.13176165407798
71642;BME280;60657;50.122;14.468;2022-07-23T03:38:51;98109.85723627552;;;23.22156099794003;58.4674601358053
71642;BME280;60657;50.122;14.468;2022-07-23T03:41:55;98096.18120991766;;;23.216220340276195;58.52277409018082
71642;BME280;60657;50.122;14.468;2022-07-23T03:44:58;98078.1642721351;;;23.24559395742733;58.177538719768066
71642;BME280;60657;50.122;14.468;2022-07-23T03:48:01;98091.29031616471;;;23.472571908140694;57.540474555580985
71642;BME280;60657;50.122;14.468;2022-07-23T03:51:05;98105.55383453242;;;23.65415426871138;57.21049820706493
71642;BME280;60657;50.122;14.468;2022-07-23T03:54:08;98120.80154985588;;;23.664835584039068;56.970168612191955
71642;BME280;60657;50.122;14.468;2022-07-23T03:57:12;98131.0389763158;;;23.43518730449378;58.01922636758984
71642;BME280;60657;50.122;14.468;2022-07-23T04:00:15;98135.38063140861;;;23.34973678187228;58.89852750438696
71642;BME280;60657;50.122;14.468;2022-07-23T04:03:19;98136.28104225468;;;23.36842908369573;58.98245212481879
71642;BME280;60657;50.122;14.468;2022-07-23T04:06:22;98138.33844967412;;;23.50194552529183;58.54375524528878
71642;BME280;60657;50.122;14.468;2022-07-23T04:09:25;98145.79967807658;;;23.515297169451443;58.614328221560996
71642;BME280;60657;50.122;14.468;2022-07-23T04:12:28;98156.68506922995;;;23.389791714351105;59.108339055466544
71642;BME280;60657;50.122;14.468;2022-07-23T04:15:31;98182.56328867789;;;23.28297856107423;59.90753032730602
71642;BME280;60657;50.122;14.468;2022-07-23T04:18:34;98168.41910961119;;;23.149462119478144;60.685740444037535
71642;BME280;60657;50.122;14.468;2022-07-23T04:21:38;98141.4636652111;;;23.125429159990844;60.639963378347446
71642;BME280;60657;50.122;14.468;2022-07-23T04:24:41;98136.46353992271;;;23.074692912184332;60.56557564660105
71642;BME280;60657;50.122;14.468;2022-07-23T04:27:44;98144.90130020198;;;23.14679179064622;60.563668268863964
71642;BME280;60657;50.122;14.468;2022-07-23T04:30:47;98132.94744120436;;;23.138780804150457;60.67811093308919
71642;BME280;60657;50.122;14.468;2022-07-23T04:33:50;98121.09967295629;;;23.26428625925078;60.11161974517434
71642;BME280;60657;50.122;14.468;2022-07-23T04:36:54;98109.22046376391;;;23.344396124208444;60.315709163042655
71642;BME280;60657;50.122;14.468;2022-07-23T04:39:57;98083.74149295666;;;23.35507743953613;60.38437476157779
71642;BME280;60657;50.122;14.468;2022-07-23T04:43:00;98096.783251939;;;23.53665980010682;59.779736018921184
71642;BME280;60657;50.122;14.468;2022-07-23T04:46:04;98096.12585739046;;;23.662165255207142;59.39444571602961
71642;BME280;60657;50.122;14.468;2022-07-23T04:49:07;98091.04316285501;;;23.670176241702904;59.50507362478065
71642;BME280;60657;50.122;14.468;2022-07-23T04:52:10;98104.72730263333;;;23.81971465629053;58.90806439307241
71642;BME280;60657;50.122;14.468;2022-07-23T04:55:13;98115.71896917469;;;23.600747692072943;60.07919432364386
71642;BME280;60657;50.122;14.468;2022-07-23T04:58:18;98108.01091119945;;;23.65415426871138;59.880827038986794
71642;BME280;60657;50.122;14.468;2022-07-23T05:01:21;98117.34015421539;;;23.509956511787593;60.43015182726788
71642;BME280;60657;50.122;14.468;2022-07-23T05:04:24;98118.68970679611;;;23.192187380788894;61.18165865568017
71642;BME280;60657;50.122;14.468;2022-07-23T05:07:27;98124.97956079227;;;23.117418173495082;61.452506294346534
71642;BME280;60657;50.122;14.468;2022-07-23T05:10:31;98126.49878342207;;;22.97589074540322;61.95033188372625
71642;BME280;60657;50.122;14.468;2022-07-23T05:13:34;98143.29281991914;;;22.925154497596708;62.21545738918135
71642;BME280;60657;50.122;14.468;2022-07-23T05:16:37;98148.23751737227;;;22.65812161440452;62.99366750591287
71642;BME280;60657;50.122;14.468;2022-07-23T05:19:41;98149.80260204728;;;22.78629739833677;62.98603799496452
71642;BME280;60657;50.122;14.468;2022-07-23T05:22:44;98161.13855108438;;;22.879758907454033;64.8743419546807
71642;BME280;60657;50.122;14.468;2022-07-23T05:25:47;98174.65451249515;;;22.02258335240711;69.9288929579614
71642;BME280;60657;50.122;14.468;2022-07-23T05:28:51;98199.34204339862;;;21.512550545510038;71.42046234836347
71642;BME280;60657;50.122;14.468;2022-07-23T05:31:54;98227.50818526869;;;21.312275883115888;73.27061875333791
71642;BME280;60657;50.122;14.468;2022-07-23T05:34:57;98198.12870108878;;;21.379034103913938;72.96543831540399
71642;BME280;60657;50.122;14.468;2022-07-23T05:38:01;98203.81186094804;;;21.448462653543913;71.97169451438162
71642;BME280;60657;50.122;14.468;2022-07-23T05:41:05;98200.59381553826;;;21.58197909514;72.6984054322118
71642;BME280;60657;50.122;14.468;2022-07-23T05:44:10;98200.38720844762;;;21.6674296177615;71.96978713664454
71642;BME280;60657;50.122;14.468;2022-07-23T05:47:14;98189.97339074439;;;21.798275730525674;70.97795071335928
71642;BME280;60657;50.122;14.468;2022-07-23T05:50:17;98183.66349713088;;;21.87571526665141;72.29022659647516
71642;BME280;60657;50.122;14.468;2022-07-23T05:53:20;98192.2986354795;;;21.865033951323724;69.46540016784924
71642;BME280;60657;50.122;14.468;2022-07-23T05:56:23;98169.34786168193;;;21.891737239642936;68.91226062409399
71642;BME280;60657;50.122;14.468;2022-07-23T05:59:27;98163.10323038165;;;21.950484473945224;71.49866483558404
71642;BME280;60657;50.122;14.468;2022-07-23T06:02:30;98183.77790164987;;;22.030594338902873;72.57633325703823
71642;BME280;60657;50.122;14.468;2022-07-23T06:05:33;98180.98811655118;;;21.926451514457924;72.74799725337606
71642;BME280;60657;50.122;14.468;2022-07-23T06:08:37;98170.63673348312;;;21.99053940642405;72.70603494316015
71642;BME280;60657;50.122;14.468;2022-07-23T06:11:40;98147.07327510991;;;22.025253681239036;73.42320897230488
71642;BME280;60657;50.122;14.468;2022-07-23T06:14:43;98133.25701180265;;;21.883726253147174;74.9662775616083
71642;BME280;60657;50.122;14.468;2022-07-23T06:17:46;98139.82579472077;;;21.857022964827948;74.4665445944915
71642;BME280;60657;50.122;14.468;2022-07-23T06:20:50;98211.89103847464;;;21.750209811551073;73.82948043030441
71642;BME280;60657;50.122;14.468;2022-07-23T06:23:53;98215.78919742159;;;21.4591439688716;74.99298084992752
71642;BME280;60657;50.122;14.468;2022-07-23T06:26:56;98207.36786457621;;;21.5205615320058;77.03578240634775
71642;BME280;60657;50.122;14.468;2022-07-23T06:30:00;98222.43225488187;;;21.5445944914931;75.97528038452735
71642;BME280;60657;50.122;14.468;2022-07-23T06:33:03;98223.52271611406;;;21.493858243686574;76.3071641107805
71642;BME280;60657;50.122;14.468;2022-07-23T06:36:06;98198.8632023207;;;21.400396734569313;78.44724193179218
71642;BME280;60657;50.122;14.468;2022-07-23T06:39:10;98180.93472095799;;;21.38437476157779;79.22545204852369
71642;BME280;60657;50.122;14.468;2022-07-23T06:42:13;98197.23826505948;;;21.608682383459225;75.47936217288472
71642;BME280;60657;50.122;14.468;2022-07-23T06:45:16;98183.67839246428;;;21.726176852063787;76.40634775310903
71642;BME280;60657;50.122;14.468;2022-07-23T06:48:20;98186.21226218957;;;21.739528496223386;77.71480888075074
71642;BME280;60657;50.122;14.468;2022-07-23T06:51:23;98165.45219004832;;;21.907759212634474;75.43358510719463
71642;BME280;60657;50.122;14.468;2022-07-23T06:54:26;98160.10168846801;;;21.945143816281373;73.93629358358129
71642;BME280;60657;50.122;14.468;2022-07-23T06:57:30;98163.71081739294;;;22.051956969558248;75.26573586633097
71642;BME280;60657;50.122;14.468;2022-07-23T07:00:33;98173.27903439093;;;22.222858014801247;73.6692607003891
71642;BME280;60657;50.122;14.468;2022-07-23T07:03:36;98168.90710230725;;;22.399099717708097;70.04142824444953
71642;BME280;60657;50.122;14.468;2022-07-23T07:06:39;98167.71924239847;;;22.44983596551461;69.76104371709773
71642;BME280;60657;50.122;14.468;2022-07-23T07:09:43;98176.29665947285;;;22.401770046540022;70.37903410391394
71642;BME280;60657;50.122;14.468;2022-07-23T07:12:46;98180.92924122346;;;22.441824979018847;71.40329594872969
71642;BME280;60657;50.122;14.468;2022-07-23T07:15:49;98195.40234018514;;;22.401770046540022;73.78370336461433
71642;BME280;60657;50.122;14.468;2022-07-23T07:18:53;98183.99196200578;;;22.460517280842296;73.25535973144122
71642;BME280;60657;50.122;14.468;2022-07-23T07:21:58;98195.48680125347;;;22.551308461127647;72.11093308918899
71642;BME280;60657;50.122;14.468;2022-07-23T07:25:01;98202.28005747272;;;22.735561150530245;71.86297398336767
71642;BME280;60657;50.122;14.468;2022-07-23T07:28:05;98208.92337282495;;;22.70084687571527;72.46952010376135
71642;BME280;60657;50.122;14.468;2022-07-23T07:31:09;98219.07591093984;;;22.794308384832533;72.49813076981765
71642;BME280;60657;50.122;14.468;2022-07-23T07:34:12;98225.19674689944;;;22.679484245059896;71.59975585564965
71642;BME280;60657;50.122;14.468;2022-07-23T07:37:16;98221.98611496235;;;22.67147325856412;72.03273060196841
71642;BME280;60657;50.122;14.468;2022-07-23T07:40:19;98227.36230491621;;;22.84771496147097;70.60028992141604
71642;BME280;60657;50.122;14.468;2022-07-23T07:43:23;98217.79301299923;;;23.10406652933547;69.72861829556726
71642;BME280;60657;50.122;14.468;2022-07-23T07:46:26;98222.69504377282;;;23.253604943923094;68.60708018616006
71642;BME280;60657;50.122;14.468;2022-07-23T07:49:29;98212.68703697494;;;23.58739604791333;66.78171969176776
71642;BME280;60657;50.122;14.468;2022-07-23T07:52:32;98214.76950149267;;;23.889143205920504;66.75120164797437
71642;BME280;60657;50.122;14.468;2022-07-23T07:55:36;98214.20515923692;;;24.076066224155028;65.625848783093
71642;BME280;60657;50.122;14.468;2022-07-23T07:58:40;98216.4188134278;;;24.134813458457316;65.29205767910277
71642;BME280;60657;50.122;14.468;2022-07-23T08:01:43;98207.88598200156;;;24.07072556649119;64.93919279774167
71642;BME280;60657;50.122;14.468;2022-07-23T08:04:46;98211.82105612943;;;24.172198062104215;64.8018616006714
71642;BME280;60657;50.122;14.468;2022-07-23T08:07:50;98217.22923678457;;;24.254978255893803;65.12993057145037
71642;BME280;60657;50.122;14.468;2022-07-23T08:10:53;98217.29444580092;;;24.372472724498365;64.55962462806134
71642;BME280;60657;50.122;14.468;2022-07-23T08:13:56;98216.71168286474;;;24.887846189059275;63.588769359884026
71642;BME280;60657;50.122;14.468;2022-07-23T08:17:00;98222.39790658427;;;25.002670328831925;62.2822156099794
71642;BME280;60657;50.122;14.468;2022-07-23T08:20:04;98224.03733094953;;;25.072098878461887;61.81872281986725
71642;BME280;60657;50.122;14.468;2022-07-23T08:23:09;98224.03733094953;;;24.837109941252763;61.93316548409247
71642;BME280;60657;50.122;14.468;2022-07-23T08:26:13;98203.16102408369;;;25.5607690547036;60.75631342030975
71642;BME280;60657;50.122;14.468;2022-07-23T08:29:16;98204.22141046866;;;25.889219501029984;59.65194171053635
71642;BME280;60657;50.122;14.468;2022-07-23T08:32:19;98205.60908292813;;;26.244373235675596;58.765011062790876
71642;BME280;60657;50.122;14.468;2022-07-23T08:35:24;98205.60908292813;;;26.15625238422217;58.99771114671549
71642;BME280;60657;50.122;14.468;2022-07-23T08:38:29;98203.83260520507;;;26.38857099259937;58.90997177080949
71642;BME280;60657;50.122;14.468;2022-07-23T08:41:32;98212.25807980367;;;26.51674677653162;57.74074921797513
71642;BME280;60657;50.122;14.468;2022-07-23T08:44:37;98208.664909601;;;26.81048294804303;58.12985427634089
71642;BME280;60657;50.122;14.468;2022-07-23T08:47:48;98207.87223883352;;;26.965362020294492;57.83611810482948
71642;BME280;60657;50.122;14.468;2022-07-23T08:50:54;98212.2987411521;;;27.21370260166323;56.90150301365682
71642;BME280;60657;50.122;14.468;2022-07-23T08:53:59;98210.16351832093;;;27.44068055237659;56.37888151369497
71642;BME280;60657;50.122;14.468;2022-07-23T08:57:04;98205.56299621012;;;27.360570687418942;57.056000610360876
71642;BME280;60657;50.122;14.468;2022-07-23T09:00:08;98214.14268242694;;;27.472724498359653;54.98649576562142
71642;BME280;60657;50.122;14.468;2022-07-23T09:03:15;98208.30045086761;;;27.67032883192188;54.50202182040131
71642;BME280;60657;50.122;14.468;2022-07-23T09:06:20;98199.81015057857;;;27.755779354543378;52.51071946288243
71642;BME280;60657;50.122;14.468;2022-07-23T09:09:23;98195.77999890364;;;27.924010070954452;52.209353780422674
71642;BME280;60657;50.122;14.468;2022-07-23T09:12:27;98195.06827611577;;;27.795834287022203;51.389181353475244
71642;BME280;60657;50.122;14.468;2022-07-23T09:15:30;98188.35363694496;;;28.07087815671015;50.919966430151824
71642;BME280;60657;50.122;14.468;2022-07-23T09:18:35;98190.05241347638;;;28.249790188448927;50.792172121766995
71642;BME280;60657;50.122;14.468;2022-07-23T09:21:41;98191.23096235198;;;28.885328450446323;50.60715648126955
71642;BME280;60657;50.122;14.468;2022-07-23T09:25:02;98192.88545910199;;;29.435416189822234;48.896238651102465
71642;BME280;60657;50.122;14.468;2022-07-23T09:28:08;98177.72638288152;;;30.089646753643095;45.93217364766918
71642;BME280;60657;50.122;14.468;2022-07-23T09:31:11;98178.14229629717;;;30.33798733501183;44.79156176089113
71642;BME280;60657;50.122;14.468;2022-07-23T09:34:17;98175.90819835044;;;30.345998321507594;44.34714274814984
71642;BME280;60657;50.122;14.468;2022-07-23T09:37:23;98176.93448281733;;;30.444800488288706;44.52452887769894
71642;BME280;60657;50.122;14.468;2022-07-23T09:40:26;98175.38975954406;;;30.500877393759055;44.04577706569009
71642;BME280;60657;50.122;14.468;2022-07-23T09:43:30;98166.2408761498;;;30.244525825894556;43.88937209124895
71642;BME280;60657;50.122;14.468;2022-07-23T09:46:34;98166.90343498066;;;29.68375677119097;44.806820782787824
71642;BME280;60657;50.122;14.468;2022-07-23T09:49:38;98172.38231897102;;;29.35263599603266;46.03517204547189
71642;BME280;60657;50.122;14.468;2022-07-23T09:52:42;98174.22137350221;;;29.11497672999161;46.49103532463569
71642;BME280;60657;50.122;14.468;2022-07-23T09:55:48;98179.66790352105;;;29.032196536202036;46.47577630273899
71642;BME280;60657;50.122;14.468;2022-07-23T09:58:52;98187.32827504553;;;28.818570229648273;47.627832455939576
71642;BME280;60657;50.122;14.468;2022-07-23T10:01:57;98176.41683511803;;;28.562218661783774;48.02456702525368
71642;BME280;60657;50.122;14.468;2022-07-23T10:05:01;98182.90995775309;;;28.444724193179212;47.273060196841385
71642;BME280;60657;50.122;14.468;2022-07-23T10:08:06;98175.85423083;;;29.165712977798123;46.040894178683146
71642;BME280;60657;50.122;14.468;2022-07-23T10:11:15;98177.63321465891;;;29.82528419928282;45.45532921339742
71642;BME280;60657;50.122;14.468;2022-07-23T10:14:19;98172.45575534223;;;30.102998397802708;44.57793545433738
71642;BME280;60657;50.122;14.468;2022-07-23T10:17:22;98167.41772665217;;;30.335317006179906;44.34332799267567
71642;BME280;60657;50.122;14.468;2022-07-23T10:20:26;98165.4210649126;;;31.000228885328454;43.761577782864116
71642;BME280;60657;50.122;14.468;2022-07-23T10:23:38;98157.57501384195;;;31.400778210116727;42.81361104753185
71642;BME280;60657;50.122;14.468;2022-07-23T10:26:52;98160.66079311022;;;32.004272526131075;43.20843823910887
71642;BME280;60657;50.122;14.468;2022-07-23T10:30:08;98158.14494695699;;;32.065690089265274;41.362096589608605
71642;BME280;60657;50.122;14.468;2022-07-23T10:33:20;98146.61319749294;;;31.865415426871138;41.196154726482035
71642;BME280;60657;50.122;14.468;2022-07-23T10:36:37;98158.21734229462;;;31.74525062943465;41.827496757457844
71642;BME280;60657;50.122;14.468;2022-07-23T10:39:47;98144.39049011667;;;32.46890974288549;40.25581750209812
71642;BME280;60657;50.122;14.468;2022-07-23T10:42:51;98143.99301119139;;;32.58907454032196;39.39940489814603
71642;BME280;60657;50.122;14.468;2022-07-23T10:45:56;98140.33229275924;;;32.49828336003662;39.0350957503624
71642;BME280;60657;50.122;14.468;2022-07-23T10:49:24;98139.78324387675;;;32.866788738841834;38.80239566643778
71642;BME280;60657;50.122;14.468;2022-07-23T10:52:29;98134.17196922106;;;33.0804150453956;38.95689326314183
71642;BME280;60657;50.122;14.468;2022-07-23T10:55:41;98141.6496050057;;;32.69855802243076;38.50293736171511
71642;BME280;60657;50.122;14.468;2022-07-23T10:58:48;98129.13091144414;;;33.22995345998322;38.39993896391241
71642;BME280;60657;50.122;14.468;2022-07-23T11:01:53;98122.60599453733;;;33.59845883878843;37.377584496833755
71642;BME280;60657;50.122;14.468;2022-07-23T11:04:59;98118.35680020133;;;33.73197528038453;37.84489204242008
71642;BME280;60657;50.122;14.468;2022-07-23T11:08:20;98118.31067163563;;;33.84412909132524;38.37132829785611